createdAt,value
2018-04-27T00:00:03.650Z,72.55
2018-04-27T00:01:13.732Z,72.55
2018-04-27T00:02:23.807Z,72.55
2018-04-27T00:03:33.634Z,72.64
2018-04-27T00:04:43.691Z,72.74
2018-04-27T00:05:53.759Z,72.64
2018-04-27T00:07:03.574Z,72.64
2018-04-27T00:08:13.487Z,72.74
2018-04-27T00:09:23.571Z,72.64
2018-04-27T00:10:33.684Z,72.74
2018-04-27T00:11:43.791Z,72.74
2018-04-27T00:12:53.862Z,72.8
2018-04-27T00:14:03.945Z,72.36
2018-04-27T00:15:14.031Z,72.74
2018-04-27T00:16:24.116Z,72.8
2018-04-27T00:17:34.210Z,72.45
2018-04-27T00:18:44.024Z,72.71
2018-04-27T00:19:53.856Z,72.13
2018-04-27T00:21:03.928Z,72.17
2018-04-27T00:22:14.022Z,72.23
2018-04-27T00:23:23.846Z,72.32
2018-04-27T00:24:33.923Z,72.32
2018-04-27T00:25:43.758Z,72.55
2018-04-27T00:26:53.831Z,72.23
2018-04-27T00:28:03.657Z,72.26
2018-04-27T00:29:13.732Z,72.36
2018-04-27T00:30:23.546Z,72.17
2018-04-27T00:31:33.355Z,72.45
2018-04-27T00:32:43.458Z,72.26
2018-04-27T00:33:53.561Z,72.17
2018-04-27T00:35:03.635Z,72.26
2018-04-27T00:36:13.452Z,72.74
2018-04-27T00:37:23.526Z,72.26
2018-04-27T00:38:33.615Z,72.26
2018-04-27T00:39:43.696Z,72.26
2018-04-27T00:40:53.777Z,72.45
2018-04-27T00:42:03.327Z,72.26
2018-04-27T00:43:13.392Z,72.55
2018-04-27T00:44:23.218Z,72.64
2018-04-27T00:45:33.305Z,72.36
2018-04-27T00:46:43.387Z,72.36
2018-04-27T00:47:53.463Z,72.83
2018-04-27T00:49:03.288Z,72.83
2018-04-27T00:50:13.353Z,72.74
2018-04-27T00:51:23.411Z,72.55
2018-04-27T00:52:33.518Z,72.42
2018-04-27T00:53:43.326Z,72.61
2018-04-27T00:54:53.426Z,72.64
2018-04-27T00:56:03.487Z,72.71
2018-04-27T00:57:13.576Z,72.61
2018-04-27T00:58:23.656Z,72.61
2018-04-27T00:59:33.758Z,72.42
2018-04-27T01:00:43.896Z,72.61
2018-04-27T01:01:53.965Z,72.61
2018-04-27T01:03:04.047Z,72.61
2018-04-27T01:04:13.864Z,72.71
2018-04-27T01:05:23.952Z,72.71
2018-04-27T01:06:34.025Z,72.61
2018-04-27T01:07:44.115Z,72.51
2018-04-27T01:08:54.196Z,72.61
2018-04-27T01:10:03.749Z,72.71
2018-04-27T01:11:13.823Z,72.42
2018-04-27T01:12:23.623Z,72.8
2018-04-27T01:13:33.451Z,72.71
2018-04-27T01:14:43.521Z,72.32
2018-04-27T01:15:53.592Z,72.32
2018-04-27T01:17:03.417Z,72.42
2018-04-27T01:18:13.279Z,72.61
2018-04-27T01:19:23.366Z,72.71
2018-04-27T01:20:33.439Z,72.32
2018-04-27T01:21:43.523Z,72.32
2018-04-27T01:22:53.616Z,72.71
2018-04-27T01:24:03.468Z,72.23
2018-04-27T01:25:13.544Z,72.61
2018-04-27T01:26:23.632Z,72.71
2018-04-27T01:27:33.457Z,72.23
2018-04-27T01:28:43.538Z,72.32
2018-04-27T01:29:53.608Z,72.19
2018-04-27T01:31:03.673Z,72.76
2018-04-27T01:32:13.230Z,72.67
2018-04-27T01:33:23.299Z,72.76
2018-04-27T01:34:33.126Z,72.57
2018-04-27T01:35:43.250Z,72.48
2018-04-27T01:36:53.333Z,72.67
2018-04-27T01:38:03.437Z,72.57
2018-04-27T01:39:13.514Z,72.48
2018-04-27T01:40:23.620Z,72.67
2018-04-27T01:41:33.692Z,72.76
2018-04-27T01:42:43.851Z,72.67
2018-04-27T01:43:53.916Z,72.76
2018-04-27T01:45:03.994Z,72.28
2018-04-27T01:46:13.821Z,72.57
2018-04-27T01:47:23.958Z,72.48
2018-04-27T01:48:34.049Z,72.28
2018-04-27T01:49:44.131Z,72.19
2018-04-27T01:50:53.940Z,72.19
2018-04-27T01:52:04.012Z,72.28
2018-04-27T01:53:13.892Z,72.09
2018-04-27T01:54:23.979Z,72.28
2018-04-27T01:55:34.055Z,72.28
2018-04-27T01:56:44.123Z,72.19
2018-04-27T01:57:54.205Z,72.09
2018-04-27T01:59:04.353Z,72.48
2018-04-27T02:00:14.437Z,71.87
2018-04-27T02:01:24.257Z,71.87
2018-04-27T02:02:34.335Z,71.72
2018-04-27T02:03:44.144Z,72.19
2018-04-27T02:04:54.270Z,72.19
2018-04-27T02:06:04.403Z,72.16
2018-04-27T02:07:14.476Z,72.28
2018-04-27T02:08:24.558Z,72.28
2018-04-27T02:09:34.637Z,71.96
2018-04-27T02:10:44.704Z,71.81
2018-04-27T02:11:54.762Z,72.38
2018-04-27T02:13:04.841Z,72.28
2018-04-27T02:14:14.654Z,71.81
2018-04-27T02:15:24.734Z,72
2018-04-27T02:16:34.813Z,72.09
2018-04-27T02:17:44.898Z,71.72
2018-04-27T02:18:54.994Z,72.09
2018-04-27T02:20:04.817Z,71.87
2018-04-27T02:21:14.897Z,72
2018-04-27T02:22:24.699Z,72
2018-04-27T02:23:34.781Z,71.96
2018-04-27T02:24:44.854Z,72.19
2018-04-27T02:25:54.943Z,72
2018-04-27T02:27:05.008Z,72.09
2018-04-27T02:28:15.124Z,71.91
2018-04-27T02:29:25.211Z,72.06
2018-04-27T02:30:35.301Z,71.91
2018-04-27T02:31:45.395Z,72.25
2018-04-27T02:32:54.961Z,71.87
2018-04-27T02:34:05.100Z,71.72
2018-04-27T02:35:15.198Z,72
2018-04-27T02:36:25.275Z,72
2018-04-27T02:37:35.123Z,71.68
2018-04-27T02:38:45.191Z,71.96
2018-04-27T02:39:55.050Z,71.87
2018-04-27T02:41:05.140Z,72.53
2018-04-27T02:42:14.963Z,72.16
2018-04-27T02:43:24.782Z,72.16
2018-04-27T02:44:34.613Z,72.16
2018-04-27T02:45:44.704Z,72.16
2018-04-27T02:46:54.793Z,72.25
2018-04-27T02:48:04.875Z,72.16
2018-04-27T02:49:14.951Z,72.16
2018-04-27T02:50:25.026Z,72.34
2018-04-27T02:51:35.126Z,72.16
2018-04-27T02:52:44.941Z,71.96
2018-04-27T02:53:55.027Z,72.16
2018-04-27T02:55:05.101Z,72.25
2018-04-27T02:56:15.174Z,72.06
2018-04-27T02:57:25.251Z,71.68
2018-04-27T02:58:35.075Z,71.87
2018-04-27T02:59:45.140Z,71.93
2018-04-27T03:00:55.233Z,71.87
2018-04-27T03:02:05.063Z,71.77
2018-04-27T03:34:15.952Z,68.9
2018-04-27T03:35:26.364Z,69.34
2018-04-27T03:36:36.426Z,69.71
2018-04-27T03:37:46.490Z,70.95
2018-04-27T03:38:56.312Z,71.04
2018-04-27T03:40:06.465Z,71.84
2018-04-27T03:41:16.538Z,72.13
2018-04-27T03:42:26.616Z,72.32
2018-04-27T03:43:36.159Z,72.32
2018-04-27T03:44:46.045Z,72.22
2018-04-27T03:45:55.858Z,72.22
2018-04-27T03:47:05.939Z,72.35
2018-04-27T03:48:16.010Z,72.35
2018-04-27T03:49:25.801Z,72.45
2018-04-27T03:50:35.350Z,72.2
2018-04-27T03:51:45.207Z,71.91
2018-04-27T03:52:55.531Z,72.2
2018-04-27T03:54:05.609Z,71.91
2018-04-27T03:55:15.687Z,71.95
2018-04-27T03:56:25.507Z,71.86
2018-04-27T03:57:35.568Z,71.95
2018-04-27T03:58:45.648Z,71.57
2018-04-27T03:59:55.722Z,71.47
2018-04-27T04:01:05.642Z,71.8
2018-04-27T04:02:15.876Z,71.8
2018-04-27T04:03:25.972Z,71.22
2018-04-27T04:04:36.048Z,70.65
2018-04-27T04:05:46.120Z,70.75
2018-04-27T04:06:55.927Z,71.22
2018-04-27T04:08:05.994Z,71.17
2018-04-27T04:09:16.131Z,71.07
2018-04-27T04:10:26.206Z,71.45
2018-04-27T04:11:36.299Z,71.07
2018-04-27T04:12:46.393Z,71.17
2018-04-27T04:13:56.219Z,71.17
2018-04-27T04:15:06.023Z,70.92
2018-04-27T04:16:16.096Z,70.63
2018-04-27T04:17:26.184Z,70.63
2018-04-27T04:18:36.256Z,70.92
2018-04-27T04:19:46.331Z,70.06
2018-04-27T04:20:56.435Z,70
2018-04-27T04:22:06.513Z,70.19
2018-04-27T04:23:16.607Z,70.38
2018-04-27T04:24:26.677Z,70.19
2018-04-27T04:25:36.754Z,70.13
2018-04-27T04:26:46.627Z,70.13
2018-04-27T04:27:56.767Z,69.93
2018-04-27T04:29:06.571Z,69.59
2018-04-27T04:30:16.637Z,69.82
2018-04-27T04:31:26.704Z,69.53
2018-04-27T04:32:36.819Z,69.91
2018-04-27T04:33:46.896Z,69.53
2018-04-27T04:34:56.969Z,69.66
2018-04-27T04:36:07.056Z,69.27
2018-04-27T04:37:17.136Z,69.37
2018-04-27T04:38:27.444Z,69.6
2018-04-27T04:39:37.275Z,69.89
2018-04-27T04:40:47.357Z,69.79
2018-04-27T04:41:57.425Z,69.6
2018-04-27T04:43:07.545Z,70.17
2018-04-27T04:44:17.633Z,70.36
2018-04-27T04:45:27.695Z,70.46
2018-04-27T04:46:37.782Z,70.11
2018-04-27T04:47:47.857Z,70.11
2018-04-27T04:48:57.939Z,70.5
2018-04-27T04:50:08.295Z,70.5
2018-04-27T04:51:18.380Z,70.87
2018-04-27T04:52:28.591Z,70.97
2018-04-27T04:53:38.960Z,70.91
2018-04-27T04:54:48.836Z,71.48
2018-04-27T04:55:58.713Z,71.58
2018-04-27T04:57:08.786Z,71.39
2018-04-27T04:58:18.331Z,71.39
2018-04-27T04:59:28.406Z,71.3
2018-04-27T05:00:38.489Z,70.91
2018-04-27T05:01:48.560Z,71.2
2018-04-27T05:02:58.824Z,71.01
2018-04-27T05:04:09.131Z,70.81
2018-04-27T05:05:19.201Z,71.2
2018-04-27T05:06:29.276Z,70.28
2018-04-27T05:07:39.343Z,70.47
2018-04-27T05:08:49.421Z,70.21
2018-04-27T05:09:59.594Z,69.83
2018-04-27T05:11:09.678Z,70.21
2018-04-27T05:12:19.491Z,69.87
2018-04-27T05:13:29.593Z,69.77
2018-04-27T05:14:39.677Z,69.48
2018-04-27T05:15:49.761Z,69.62
2018-04-27T05:16:59.845Z,69.04
2018-04-27T05:18:09.943Z,69.33
2018-04-27T05:19:20.026Z,69.26
2018-04-27T05:20:29.916Z,69.56
2018-04-27T05:21:40.002Z,69.56
2018-04-27T05:22:49.556Z,69.46
2018-04-27T05:23:59.642Z,69.26
2018-04-27T05:25:09.733Z,69.26
2018-04-27T05:26:19.813Z,69.2
2018-04-27T05:27:29.920Z,69.4
2018-04-27T05:28:40.039Z,69.05
2018-04-27T05:29:50.201Z,69.62
2018-04-27T05:31:00.321Z,69.43
2018-04-27T05:32:10.158Z,69.72
2018-04-27T05:33:20.234Z,69.46
2018-04-27T05:34:30.318Z,69.37
2018-04-27T05:35:40.399Z,69.27
2018-04-27T05:36:50.498Z,69.27
2018-04-27T05:38:00.578Z,69.5
2018-04-27T05:39:10.667Z,69.4
2018-04-27T05:40:20.742Z,69.89
2018-04-27T05:41:30.289Z,70.07
2018-04-27T05:42:40.414Z,70.46
2018-04-27T05:43:50.487Z,70.27
2018-04-27T05:45:00.307Z,70.52
2018-04-27T05:46:10.411Z,70.62
2018-04-27T05:47:20.234Z,70.72
2018-04-27T05:48:30.131Z,70.72
2018-04-27T05:49:40.201Z,71.29
2018-04-27T05:50:50.010Z,71.87
2018-04-27T05:52:00.106Z,71.55
2018-04-27T05:53:10.177Z,71.35
2018-04-27T05:54:20.052Z,71.83
2018-04-27T05:55:30.200Z,72.02
2018-04-27T05:56:40.428Z,71.45
2018-04-27T05:57:50.245Z,71.35
2018-04-27T05:59:00.328Z,72.02
2018-04-27T06:00:10.465Z,71.58
2018-04-27T06:01:20.563Z,71.58
2018-04-27T06:02:30.646Z,71.67
2018-04-27T06:03:40.728Z,71.67
2018-04-27T06:04:50.813Z,71.77
2018-04-27T06:06:00.891Z,71.48
2018-04-27T06:07:10.985Z,71.29
2018-04-27T06:08:21.094Z,71.45
2018-04-27T06:09:31.172Z,71.96
2018-04-27T06:10:41.255Z,71.77
2018-04-27T06:11:51.409Z,71.73
2018-04-27T06:13:01.485Z,71.73
2018-04-27T06:14:11.559Z,71.35
2018-04-27T06:15:21.648Z,71.35
2018-04-27T06:16:31.752Z,71.25
2018-04-27T06:17:41.849Z,71.35
2018-04-27T06:18:51.928Z,71.16
2018-04-27T06:20:02.003Z,71.67
2018-04-27T06:21:12.077Z,71.35
2018-04-27T06:22:22.165Z,71.25
2018-04-27T06:23:32.314Z,71.25
2018-04-27T06:24:42.403Z,71.16
2018-04-27T06:25:52.552Z,71.29
2018-04-27T06:27:02.637Z,71.25
2018-04-27T06:28:12.729Z,71.25
2018-04-27T06:29:22.848Z,71.25
2018-04-27T06:30:32.923Z,71.16
2018-04-27T06:31:43.025Z,70.97
2018-04-27T06:32:53.031Z,71.45
2018-04-27T06:34:03.114Z,71.16
2018-04-27T06:35:13.210Z,71.35
2018-04-27T06:36:23.304Z,71.35
2018-04-27T06:37:33.127Z,71.45
2018-04-27T06:38:43.214Z,71.35
2018-04-27T06:39:53.281Z,71.45
2018-04-27T06:41:03.108Z,71.45
2018-04-27T06:42:12.935Z,71.45
2018-04-27T06:43:22.745Z,71.16
2018-04-27T06:44:32.823Z,71.06
2018-04-27T06:45:42.897Z,71.45
2018-04-27T06:46:52.971Z,71.45
2018-04-27T06:48:03.065Z,71.35
2018-04-27T06:49:13.155Z,71.48
2018-04-27T06:50:23.240Z,71.35
2018-04-27T06:51:33.126Z,71.19
2018-04-27T06:52:43.376Z,71.1
2018-04-27T06:53:53.471Z,71.48
2018-04-27T06:55:03.300Z,70.81
2018-04-27T06:56:13.379Z,71.58
2018-04-27T06:57:23.456Z,71.29
2018-04-27T06:58:33.348Z,71.19
2018-04-27T06:59:43.441Z,71.48
2018-04-27T07:00:53.272Z,71.19
2018-04-27T07:02:03.365Z,71.19
2018-04-27T07:03:13.188Z,71.1
2018-04-27T07:04:23.313Z,71.48
2018-04-27T07:05:33.405Z,71.39
2018-04-27T07:06:43.513Z,71.39
2018-04-27T07:07:53.594Z,71.48
2018-04-27T07:09:03.433Z,71.39
2018-04-27T07:10:13.599Z,71.48
2018-04-27T07:11:23.667Z,71.48
2018-04-27T07:12:33.929Z,71.42
2018-04-27T07:13:44.051Z,71.29
2018-04-27T07:14:54.132Z,71.19
2018-04-27T07:16:04.239Z,71.29
2018-04-27T07:17:14.375Z,71.29
2018-04-27T07:18:24.474Z,71.1
2018-04-27T07:19:34.560Z,71.48
2018-04-27T07:20:44.652Z,70.84
2018-04-27T07:21:54.512Z,70.56
2018-04-27T07:23:04.592Z,70.75
2018-04-27T07:24:14.680Z,70.75
2018-04-27T07:25:24.763Z,70.46
2018-04-27T07:26:34.580Z,70.75
2018-04-27T07:27:44.667Z,70.75
2018-04-27T07:28:54.745Z,70.75
2018-04-27T07:30:04.897Z,70.84
2018-04-27T07:31:14.722Z,70.84
2018-04-27T07:32:24.812Z,70.84
2018-04-27T07:33:34.966Z,71.04
2018-04-27T07:34:45.062Z,71.04
2018-04-27T07:35:54.599Z,71.04
2018-04-27T07:37:04.693Z,70.94
2018-04-27T07:38:14.582Z,71.04
2018-04-27T07:39:24.719Z,70.94
2018-04-27T07:40:34.853Z,71.17
2018-04-27T07:41:44.680Z,71.08
2018-04-27T07:42:54.759Z,70.98
2018-04-27T07:44:04.612Z,71.08
2018-04-27T07:45:14.780Z,71.17
2018-04-27T07:46:25.085Z,70.78
2018-04-27T07:47:35.158Z,70.59
2018-04-27T07:48:45.259Z,71.17
2018-04-27T07:49:55.327Z,70.78
2018-04-27T07:51:05.475Z,70.68
2018-04-27T07:52:15.575Z,70.68
2018-04-27T07:53:25.650Z,70.78
2018-04-27T07:54:35.773Z,71.08
2018-04-27T07:55:45.864Z,70.59
2018-04-27T07:56:55.930Z,70.53
2018-04-27T07:58:06.020Z,70.92
2018-04-27T07:59:16.098Z,71.01
2018-04-27T08:00:25.931Z,70.43
2018-04-27T08:01:36.008Z,70.43
2018-04-27T08:02:46.150Z,70.15
2018-04-27T08:03:55.972Z,70.24
2018-04-27T08:05:06.064Z,70.28
2018-04-27T08:06:15.894Z,70.56
2018-04-27T08:07:26.011Z,70.09
2018-04-27T08:08:35.876Z,70.02
2018-04-27T08:09:45.428Z,69.54
2018-04-27T08:10:55.248Z,69.29
2018-04-27T08:12:05.344Z,68.99
2018-04-27T08:13:15.450Z,68.93
2018-04-27T08:14:25.533Z,69.03
2018-04-27T08:15:35.649Z,69.13
2018-04-27T08:16:45.729Z,68.87
2018-04-27T08:17:55.859Z,68.77
2018-04-27T08:19:06.024Z,69.35
2018-04-27T08:20:16.177Z,69.07
2018-04-27T08:21:26.011Z,68.87
2018-04-27T08:22:36.111Z,68.77
2018-04-27T08:23:46.193Z,68.97
2018-04-27T08:24:56.036Z,69.1
2018-04-27T08:26:06.118Z,70.06
2018-04-27T08:27:16.261Z,69.93
2018-04-27T08:28:26.084Z,69.45
2018-04-27T08:29:36.184Z,69.84
2018-04-27T08:30:46.281Z,69.58
2018-04-27T08:31:56.426Z,69.64
2018-04-27T08:33:06.524Z,69.45
2018-04-27T08:34:16.638Z,69.84
2018-04-27T08:35:26.488Z,70.32
2018-04-27T08:36:36.324Z,70.57
2018-04-27T08:37:46.454Z,70.96
2018-04-27T08:38:56.566Z,71.25
2018-04-27T08:40:06.657Z,71.22
2018-04-27T08:41:16.743Z,70.92
2018-04-27T08:42:26.662Z,70.92
2018-04-27T08:43:36.751Z,71.25
2018-04-27T08:44:46.989Z,70.73
2018-04-27T08:45:56.818Z,71.25
2018-04-27T08:47:06.933Z,71.12
2018-04-27T08:48:17.049Z,71.25
2018-04-27T08:49:27.167Z,71.15
2018-04-27T08:50:37.191Z,71.06
2018-04-27T08:51:47.285Z,70.96
2018-04-27T08:52:57.359Z,70.76
2018-04-27T08:54:07.475Z,71.02
2018-04-27T08:55:17.592Z,71.12
2018-04-27T08:56:27.431Z,71.02
2018-04-27T08:57:37.605Z,70.67
2018-04-27T08:58:47.715Z,70.92
2018-04-27T08:59:57.797Z,70.96
2018-04-27T09:01:07.943Z,70.86
2018-04-27T09:02:17.510Z,71.25
2018-04-27T09:03:27.323Z,70.96
2018-04-27T09:04:37.153Z,70.67
2018-04-27T09:05:47.267Z,70.64
2018-04-27T09:06:56.846Z,70.67
2018-04-27T09:08:06.932Z,70.76
2018-04-27T09:09:16.758Z,71.15
2018-04-27T09:10:26.583Z,71.25
2018-04-27T09:11:36.659Z,71.22
2018-04-27T09:12:46.807Z,71.12
2018-04-27T09:13:56.648Z,71.22
2018-04-27T09:15:06.486Z,70.67
2018-04-27T09:16:16.672Z,70.96
2018-04-27T09:17:27.025Z,70.86
2018-04-27T09:18:37.101Z,70.96
2018-04-27T09:19:46.919Z,70.96
2018-04-27T09:20:56.991Z,70.9
2018-04-27T09:22:07.070Z,70.96
2018-04-27T09:23:17.156Z,70.96
2018-04-27T09:24:27.305Z,71.28
2018-04-27T09:25:37.401Z,70.7
2018-04-27T09:26:47.563Z,71
2018-04-27T09:27:57.827Z,70.9
2018-04-27T09:29:07.908Z,70.9
2018-04-27T09:30:18.010Z,71.32
2018-04-27T09:31:27.583Z,70.74
2018-04-27T09:32:37.661Z,70.74
2018-04-27T09:33:47.734Z,70.94
2018-04-27T09:34:57.860Z,70.94
2018-04-27T09:36:07.750Z,70.84
2018-04-27T09:37:17.850Z,71.03
2018-04-27T09:38:27.947Z,70.94
2018-04-27T09:39:38.049Z,71.06
2018-04-27T09:40:47.876Z,71.06
2018-04-27T09:41:57.996Z,71.03
2018-04-27T09:43:08.104Z,71.22
2018-04-27T09:44:17.933Z,71.32
2018-04-27T09:45:28.068Z,71.36
2018-04-27T09:46:37.885Z,71.26
2018-04-27T09:47:47.980Z,70.78
2018-04-27T09:48:57.865Z,71.06
2018-04-27T09:50:07.988Z,70.97
2018-04-27T09:51:17.544Z,70.97
2018-04-27T09:52:27.621Z,71.06
2018-04-27T09:53:37.867Z,71.26
2018-04-27T09:54:47.962Z,71.36
2018-04-27T09:55:57.772Z,71.36
2018-04-27T09:57:07.686Z,71.36
2018-04-27T09:58:17.794Z,71.36
2018-04-27T09:59:27.947Z,71.16
2018-04-27T10:00:38.042Z,71.06
2018-04-27T10:01:48.243Z,70.97
2018-04-27T10:02:58.130Z,70.78
2018-04-27T10:04:08.263Z,70.81
2018-04-27T10:05:18.359Z,70.81
2018-04-27T10:06:28.448Z,70.81
2018-04-27T10:07:38.523Z,70.52
2018-04-27T10:08:48.609Z,70.32
2018-04-27T10:09:58.735Z,70.23
2018-04-27T10:11:08.815Z,70.32
2018-04-27T10:12:18.654Z,70.42
2018-04-27T10:13:28.764Z,70.62
2018-04-27T10:14:38.912Z,70.9
2018-04-27T10:15:49.005Z,70.52
2018-04-27T10:16:59.163Z,70.36
2018-04-27T10:18:09.002Z,70.32
2018-04-27T10:19:19.093Z,70.56
2018-04-27T10:20:29.296Z,70.84
2018-04-27T10:21:39.497Z,70.75
2018-04-27T10:22:49.683Z,70.84
2018-04-27T10:23:59.511Z,70.65
2018-04-27T10:25:09.605Z,70.56
2018-04-27T10:26:19.435Z,70.84
2018-04-27T10:27:29.275Z,70.75
2018-04-27T10:28:39.402Z,70.56
2018-04-27T10:29:49.496Z,70.26
2018-04-27T10:30:59.692Z,70.84
2018-04-27T10:32:09.065Z,70.56
2018-04-27T10:33:19.161Z,70.36
2018-04-27T10:34:30.306Z,70.84
2018-04-27T10:35:40.139Z,70.36
2018-04-27T10:36:50.219Z,70.46
2018-04-27T10:38:00.304Z,70.36
2018-04-27T10:39:10.139Z,70.23
2018-04-27T10:40:20.264Z,70.46
2018-04-27T10:41:30.103Z,70.56
2018-04-27T10:42:40.183Z,70.75
2018-04-27T10:43:50.280Z,70.46
2018-04-27T10:45:00.379Z,70.1
2018-04-27T10:46:10.506Z,70.1
2018-04-27T10:47:20.336Z,69.53
2018-04-27T10:48:29.897Z,70.2
2018-04-27T10:49:40.015Z,70.1
2018-04-27T10:50:50.106Z,69.53
2018-04-27T10:52:00.202Z,70.24
2018-04-27T10:53:10.280Z,69.46
2018-04-27T10:54:20.103Z,69.75
2018-04-27T10:55:30.197Z,70.14
2018-04-27T10:56:40.273Z,69.66
2018-04-27T10:57:50.359Z,69.98
2018-04-27T10:59:00.174Z,69.98
2018-04-27T11:00:10.010Z,69.69
2018-04-27T11:01:20.169Z,69.69
2018-04-27T11:02:30.240Z,69.98
2018-04-27T11:03:40.346Z,69.89
2018-04-27T11:04:50.425Z,69.59
2018-04-27T11:06:00.510Z,70.47
2018-04-27T11:07:10.605Z,69.79
2018-04-27T11:08:20.693Z,70.37
2018-04-27T11:09:30.822Z,70.08
2018-04-27T11:10:40.920Z,70.27
2018-04-27T11:11:51.009Z,69.98
2018-04-27T11:13:01.089Z,69.79
2018-04-27T11:14:11.185Z,70.01
2018-04-27T11:15:21.280Z,69.92
2018-04-27T11:16:31.373Z,70.01
2018-04-27T11:17:41.451Z,69.73
2018-04-27T11:18:51.573Z,69.73
2018-04-27T11:20:01.414Z,69.82
2018-04-27T11:21:11.634Z,69.82
2018-04-27T11:22:21.460Z,69.63
2018-04-27T11:23:31.550Z,69.92
2018-04-27T11:24:41.642Z,70.05
2018-04-27T11:25:51.732Z,69.76
2018-04-27T11:27:01.875Z,69.95
2018-04-27T11:28:11.983Z,69.57
2018-04-27T11:29:22.075Z,70.15
2018-04-27T11:30:32.171Z,70.25
2018-04-27T11:31:42.003Z,70.5
2018-04-27T11:32:51.836Z,70.89
2018-04-27T11:34:01.955Z,70.89
2018-04-27T11:35:12.165Z,70.5
2018-04-27T11:36:22.500Z,70.37
2018-04-27T11:37:32.595Z,70.66
2018-04-27T11:38:42.775Z,70.86
2018-04-27T11:39:52.648Z,70.89
2018-04-27T11:41:02.752Z,70.86
2018-04-27T11:42:12.868Z,70.95
2018-04-27T11:43:22.958Z,70.76
2018-04-27T11:44:33.037Z,70.86
2018-04-27T11:45:43.126Z,70.76
2018-04-27T11:46:53.210Z,70.66
2018-04-27T11:48:03.294Z,70.66
2018-04-27T11:49:13.384Z,70.56
2018-04-27T11:50:23.474Z,70.56
2018-04-27T12:00:02.792Z,70.53
2018-04-27T12:01:12.618Z,70.62
2018-04-27T12:02:22.718Z,70.43
2018-04-27T12:03:32.807Z,70.53
2018-04-27T12:04:43.067Z,70.62
2018-04-27T12:05:53.198Z,70.82
2018-04-27T12:07:03.293Z,70.62
2018-04-27T12:08:13.122Z,70.82
2018-04-27T12:09:23.219Z,70.82
2018-04-27T12:10:33.043Z,70.82
2018-04-27T12:11:43.435Z,70.82
2018-04-27T12:12:53.530Z,70.72
2018-04-27T12:14:03.367Z,70.92
2018-04-27T12:15:13.482Z,70.72
2018-04-27T12:16:23.309Z,70.82
2018-04-27T12:17:33.224Z,70.82
2018-04-27T12:18:43.548Z,70.72
2018-04-27T12:19:53.640Z,70.53
2018-04-27T12:21:03.719Z,70.62
2018-04-27T12:22:13.822Z,70.92
2018-04-27T12:23:23.663Z,70.53
2018-04-27T12:24:33.757Z,70.62
2018-04-27T12:25:43.826Z,70.82
2018-04-27T12:26:53.936Z,70.86
2018-04-27T12:28:04.047Z,70.66
2018-04-27T12:29:14.455Z,70.76
2018-04-27T12:30:24.294Z,70.95
2018-04-27T12:31:34.555Z,70.86
2018-04-27T12:32:45.115Z,70.76
2018-04-27T12:33:54.941Z,70.95
2018-04-27T12:35:05.050Z,70.86
2018-04-27T12:36:15.130Z,70.95
2018-04-27T12:37:24.950Z,70.95
2018-04-27T12:38:34.771Z,70.86
2018-04-27T12:39:44.880Z,70.76
2018-04-27T12:40:55.009Z,70.86
2018-04-27T12:42:04.827Z,70.86
2018-04-27T12:43:14.914Z,70.95
2018-04-27T12:44:25.004Z,70.86
2018-04-27T12:45:35.099Z,70.98
2018-04-27T12:46:45.246Z,70.79
2018-04-27T12:47:55.350Z,70.31
2018-04-27T12:49:05.820Z,70.66
2018-04-27T12:50:16.028Z,70.95
2018-04-27T12:51:26.114Z,70.95
2018-04-27T12:52:35.984Z,70.86
2018-04-27T12:53:46.081Z,70.95
2018-04-27T12:54:55.644Z,70.66
2018-04-27T12:56:05.487Z,70.56
2018-04-27T12:57:15.576Z,70.66
2018-04-27T12:58:25.433Z,70.76
2018-04-27T12:59:35.544Z,70.95
2018-04-27T13:00:45.655Z,71.04
2018-04-27T13:01:55.765Z,70.86
2018-04-27T13:03:05.597Z,70.86
2018-04-27T13:04:15.737Z,70.86
2018-04-27T13:05:25.549Z,70.56
2018-04-27T13:06:35.647Z,70.47
2018-04-27T13:07:45.741Z,70.47
2018-04-27T13:08:55.927Z,70.56
2018-04-27T13:10:06.019Z,70.86
2018-04-27T13:11:16.109Z,70.47
2018-04-27T13:12:26.204Z,70.95
2018-04-27T13:13:36.307Z,70.86
2018-04-27T13:14:46.429Z,70.76
2018-04-27T13:15:56.253Z,70.76
2018-04-27T13:17:06.369Z,70.76
2018-04-27T13:18:16.459Z,71.34
2018-04-27T13:19:26.587Z,70.86
2018-04-27T13:20:36.662Z,70.76
2018-04-27T13:21:46.825Z,70.66
2018-04-27T13:22:56.928Z,70.66
2018-04-27T13:24:07.113Z,71.04
2018-04-27T13:25:17.097Z,71.24
2018-04-27T13:26:27.171Z,70.92
2018-04-27T13:27:37.050Z,71.2
2018-04-27T13:28:47.158Z,70.92
2018-04-27T13:29:57.272Z,71.2
2018-04-27T13:31:07.370Z,71.2
2018-04-27T13:32:17.486Z,70.92
2018-04-27T13:33:27.732Z,70.92
2018-04-27T13:34:37.916Z,71.44
2018-04-27T13:35:48.084Z,71.14
2018-04-27T13:36:58.213Z,70.76
2018-04-27T13:38:08.332Z,71.24
2018-04-27T13:39:18.168Z,71.53
2018-04-27T13:40:28.131Z,71.11
2018-04-27T13:41:37.969Z,71.11
2018-04-27T13:42:48.067Z,71.14
2018-04-27T13:43:58.212Z,71.44
2018-04-27T13:45:08.516Z,70.86
2018-04-27T13:46:18.347Z,70.86
2018-04-27T13:47:28.441Z,71.53
2018-04-27T13:48:38.528Z,71.04
2018-04-27T13:49:48.692Z,71.14
2018-04-27T13:50:58.777Z,71.11
2018-04-27T13:52:08.841Z,71.14
2018-04-27T13:53:18.932Z,71.24
2018-04-27T13:54:29.055Z,71.3
2018-04-27T13:55:39.254Z,70.95
2018-04-27T13:56:48.840Z,71.62
2018-04-27T13:57:58.926Z,71.53
2018-04-27T13:59:09.059Z,71.04
2018-04-27T14:00:19.190Z,71.24
2018-04-27T14:01:29.018Z,71.3
2018-04-27T14:02:39.294Z,71.11
2018-04-27T14:03:49.748Z,71.2
2018-04-27T14:04:59.878Z,71.2
2018-04-27T14:06:09.696Z,71.2
2018-04-27T14:07:19.856Z,71.53
2018-04-27T14:08:29.947Z,71.53
2018-04-27T14:09:40.397Z,71.04
2018-04-27T14:10:50.734Z,71.53
2018-04-27T14:12:00.585Z,71.44
2018-04-27T14:13:10.459Z,71.53
2018-04-27T14:14:20.545Z,71.2
2018-04-27T14:15:30.628Z,71.01
2018-04-27T14:16:40.708Z,71.3
2018-04-27T14:17:50.798Z,71.69
2018-04-27T14:19:00.693Z,71.3
2018-04-27T14:20:10.832Z,71.4
2018-04-27T14:21:20.948Z,71.5
2018-04-27T14:22:30.920Z,71.3
2018-04-27T14:23:40.763Z,71.88
2018-04-27T14:24:50.858Z,71.98
2018-04-27T14:26:00.980Z,71.3
2018-04-27T14:27:10.835Z,71.3
2018-04-27T14:28:20.670Z,71.01
2018-04-27T14:29:30.782Z,71.11
2018-04-27T14:30:40.635Z,71.01
2018-04-27T14:31:50.741Z,71.3
2018-04-27T14:33:00.849Z,71.2
2018-04-27T14:34:10.933Z,70.92
2018-04-27T14:35:21.057Z,71.4
2018-04-27T14:36:31.237Z,71.3
2018-04-27T14:37:41.321Z,71.94
2018-04-27T14:38:51.400Z,71.94
2018-04-27T14:40:01.232Z,71.94
2018-04-27T14:41:10.798Z,71.66
2018-04-27T14:42:20.688Z,71.46
2018-04-27T14:43:30.531Z,71.56
2018-04-27T14:44:40.632Z,71.94
2018-04-27T14:45:50.474Z,71.84
2018-04-27T14:47:00.308Z,71.46
2018-04-27T14:48:10.206Z,71.3
2018-04-27T14:49:20.369Z,71.84
2018-04-27T14:50:30.480Z,71.69
2018-04-27T14:51:40.569Z,71.98
2018-04-27T14:52:50.404Z,72.04
2018-04-27T14:54:00.247Z,71.84
2018-04-27T14:55:10.382Z,71.94
2018-04-27T14:56:20.497Z,71.75
2018-04-27T14:57:30.622Z,71.3
2018-04-27T14:58:40.717Z,71.94
2018-04-27T14:59:50.617Z,71.75
2018-04-27T15:01:00.458Z,71.75
2018-04-27T15:02:10.318Z,71.84
2018-04-27T15:03:19.879Z,71.94
2018-04-27T15:04:29.986Z,72.24
2018-04-27T15:05:40.101Z,72.14
2018-04-27T15:06:50.212Z,72.33
2018-04-27T15:08:00.335Z,71.66
2018-04-27T15:09:10.429Z,71.75
2018-04-27T15:10:20.540Z,71.75
2018-04-27T15:11:30.665Z,71.94
2018-04-27T15:12:40.773Z,72.04
2018-04-27T15:13:50.886Z,71.84
2018-04-27T15:15:00.978Z,71.94
2018-04-27T15:16:11.101Z,71.62
2018-04-27T15:17:20.957Z,72.2
2018-04-27T15:18:31.087Z,72.2
2018-04-27T15:19:41.177Z,72.2
2018-04-27T15:20:51.281Z,72.2
2018-04-27T15:22:01.406Z,71.81
2018-04-27T15:23:11.565Z,71.72
2018-04-27T15:24:21.683Z,71.91
2018-04-27T15:25:31.786Z,71.91
2018-04-27T15:26:41.891Z,71.84
2018-04-27T15:27:51.762Z,71.72
2018-04-27T15:29:01.591Z,71.94
2018-04-27T15:30:11.727Z,71.72
2018-04-27T15:31:22.267Z,71.62
2018-04-27T15:32:32.385Z,71.81
2018-04-27T15:33:42.620Z,72.3
2018-04-27T15:34:53.003Z,72
2018-04-27T15:36:03.116Z,72.3
2018-04-27T15:37:13.224Z,71.97
2018-04-27T15:38:23.360Z,72.16
2018-04-27T15:39:33.486Z,71.88
2018-04-27T15:40:43.633Z,72.26
2018-04-27T15:41:53.720Z,72.16
2018-04-27T15:43:03.828Z,72.36
2018-04-27T15:44:13.952Z,71.97